createdAt,value
2023-03-26T00:01:29.799Z,2.07
2023-03-26T00:03:58.650Z,1.90
2023-03-26T00:06:37.614Z,1.37
2023-03-26T00:09:07.812Z,1.93
2023-03-26T00:11:35.408Z,1.60
2023-03-26T00:14:02.948Z,2.40
2023-03-26T00:16:31.596Z,2.57
2023-03-26T00:19:01.421Z,2.00
2023-03-26T00:21:30.595Z,1.87
2023-03-26T00:24:07.370Z,1.87
2023-03-26T00:26:37.777Z,2.00
2023-03-26T00:29:06.874Z,2.20
2023-03-26T00:31:34.502Z,2.23
2023-03-26T00:34:03.924Z,2.77
2023-03-26T00:36:32.180Z,1.90
2023-03-26T00:38:59.275Z,2.20
2023-03-26T00:41:31.042Z,1.67
2023-03-26T00:44:00.977Z,1.77
2023-03-26T00:46:30.808Z,2.37
2023-03-26T00:49:01.981Z,2.50
2023-03-26T00:51:30.501Z,2.33
2023-03-26T00:53:58.337Z,1.93
2023-03-26T00:56:26.185Z,2.70
2023-03-26T00:58:53.438Z,1.97
2023-03-26T01:01:27.919Z,2.50
2023-03-26T01:04:08.901Z,1.50
2023-03-26T01:06:41.421Z,2.13
2023-03-26T01:09:18.877Z,2.37
2023-03-26T01:11:48.922Z,1.93
2023-03-26T01:14:23.807Z,1.87
2023-03-26T01:16:58.842Z,1.97
2023-03-26T01:19:50.110Z,1.83
2023-03-26T01:22:26.390Z,1.90
2023-03-26T01:24:56.770Z,2.50
2023-03-26T01:27:41.209Z,1.90
2023-03-26T01:30:35.365Z,1.70
2023-03-26T01:33:13.948Z,2.17
2023-03-26T01:35:47.116Z,1.40
2023-03-26T01:38:29.776Z,1.93
2023-03-26T01:41:16.923Z,2.03
2023-03-26T01:43:53.862Z,2.33
2023-03-26T01:46:23.700Z,1.73
2023-03-26T01:48:51.863Z,1.43
2023-03-26T01:51:32.219Z,2.03
2023-03-26T01:54:00.839Z,2.47
2023-03-26T01:56:42.444Z,1.60
2023-03-26T01:59:37.243Z,1.93
2023-03-26T02:02:14.981Z,3.20
2023-03-26T02:04:53.469Z,1.33
2023-03-26T02:07:44.787Z,2.00
2023-03-26T02:10:26.149Z,2.20
2023-03-26T02:12:54.051Z,1.70
2023-03-26T02:15:22.135Z,1.57
2023-03-26T02:17:49.842Z,2.93
2023-03-26T02:20:18.971Z,2.40
2023-03-26T02:22:47.545Z,2.33
2023-03-26T02:25:22.085Z,2.27
2023-03-26T02:27:52.690Z,3.20
2023-03-26T02:30:25.911Z,2.50
2023-03-26T02:32:59.373Z,1.20
2023-03-26T02:35:33.145Z,1.60
2023-03-26T02:38:02.145Z,2.57
2023-03-26T02:40:29.293Z,2.00
2023-03-26T02:42:57.243Z,2.00
2023-03-26T02:45:24.907Z,1.67
2023-03-26T02:48:08.055Z,2.03
2023-03-26T02:50:50.237Z,1.70
2023-03-26T02:53:29.814Z,1.50
2023-03-26T02:56:15.479Z,1.70
2023-03-26T02:58:54.469Z,1.40
2023-03-26T03:01:22.935Z,1.47
2023-03-26T03:03:56.549Z,2.27
2023-03-26T03:06:34.464Z,1.43
2023-03-26T03:09:02.892Z,1.37
2023-03-26T03:11:36.835Z,1.57
2023-03-26T03:14:05.686Z,1.20
2023-03-26T03:16:34.194Z,1.47
2023-03-26T03:19:09.954Z,1.30
2023-03-26T03:21:38.478Z,0.90
2023-03-26T03:24:07.074Z,2.03
2023-03-26T03:26:37.787Z,1.47
2023-03-26T03:29:23.817Z,1.47
2023-03-26T03:31:51.279Z,1.20
2023-03-26T03:34:38.730Z,1.47
2023-03-26T03:37:06.649Z,1.73
2023-03-26T03:39:42.669Z,1.53
2023-03-26T03:42:11.634Z,1.43
2023-03-26T03:44:39.374Z,1.57
2023-03-26T03:47:15.873Z,1.03
2023-03-26T03:49:43.463Z,1.30
2023-03-26T03:52:10.711Z,1.30
2023-03-26T03:54:41.668Z,1.90
2023-03-26T03:57:16.039Z,1.67
2023-03-26T04:00:00.320Z,1.57
2023-03-26T04:02:34.824Z,1.43
2023-03-26T04:05:06.192Z,1.90
2023-03-26T04:07:34.298Z,1.53
2023-03-26T04:10:09.333Z,2.80
2023-03-26T04:12:56.719Z,1.47
2023-03-26T04:16:02.744Z,1.67
2023-03-26T04:18:32.457Z,1.60
2023-03-26T04:21:07.620Z,1.73
2023-03-26T04:23:35.203Z,1.80
2023-03-26T04:26:16.347Z,1.77
2023-03-26T04:29:06.413Z,1.80
2023-03-26T04:31:36.409Z,1.53
2023-03-26T04:34:08.153Z,1.50
2023-03-26T04:36:46.415Z,1.50
2023-03-26T04:39:15.196Z,2.20
2023-03-26T04:42:00.900Z,1.80
2023-03-26T04:44:38.144Z,1.97
2023-03-26T04:47:09.867Z,2.23
2023-03-26T04:49:47.416Z,2.10
2023-03-26T04:52:16.239Z,1.40
2023-03-26T04:55:43.436Z,1.57
2023-03-26T04:58:18.907Z,1.70
2023-03-26T05:00:55.700Z,2.20
2023-03-26T05:03:22.929Z,1.60
2023-03-26T05:05:50.385Z,1.70
2023-03-26T05:08:17.580Z,1.90
2023-03-26T05:10:44.688Z,1.60
2023-03-26T05:13:16.532Z,1.87
2023-03-26T05:15:48.889Z,2.13
2023-03-26T05:18:29.969Z,1.80
2023-03-26T05:20:57.711Z,1.67
2023-03-26T05:23:25.753Z,2.10
2023-03-26T05:26:10.232Z,1.77
2023-03-26T05:28:37.787Z,1.93
2023-03-26T05:31:31.351Z,2.00
2023-03-26T05:34:03.375Z,2.00
2023-03-26T05:36:30.762Z,1.77
2023-03-26T05:39:10.380Z,3.03
2023-03-26T05:42:04.340Z,1.90
2023-03-26T05:44:51.657Z,1.33
2023-03-26T05:47:24.716Z,2.20
2023-03-26T05:49:52.938Z,1.80
2023-03-26T05:52:20.527Z,1.53
2023-03-26T05:55:08.271Z,1.70
2023-03-26T05:58:04.174Z,1.73
2023-03-26T06:00:50.014Z,2.00
2023-03-26T06:03:29.096Z,1.87
2023-03-26T06:06:09.658Z,1.73
2023-03-26T06:08:48.927Z,2.13
2023-03-26T06:11:31.152Z,1.87
2023-03-26T06:13:58.943Z,1.87
2023-03-26T06:16:27.482Z,1.77
2023-03-26T06:19:12.781Z,2.00
2023-03-26T06:22:04.838Z,1.53
2023-03-26T06:24:41.092Z,2.13
2023-03-26T06:27:31.466Z,1.50
2023-03-26T06:30:17.142Z,1.80
2023-03-26T06:33:07.045Z,1.60
2023-03-26T06:35:42.983Z,1.67
2023-03-26T06:38:10.720Z,2.10
2023-03-26T06:40:37.885Z,1.50
2023-03-26T06:43:39.209Z,1.70
2023-03-26T06:46:09.632Z,1.73
2023-03-26T06:48:55.656Z,1.93
2023-03-26T06:51:41.614Z,2.00
2023-03-26T06:54:19.571Z,2.87
2023-03-26T06:57:02.349Z,1.40
2023-03-26T06:59:47.798Z,1.60
2023-03-26T07:02:44.451Z,1.60
2023-03-26T07:05:43.417Z,1.80
2023-03-26T07:08:31.686Z,1.97
2023-03-26T07:11:19.629Z,1.90
2023-03-26T07:14:10.178Z,1.40
2023-03-26T07:16:40.608Z,1.87
2023-03-26T07:19:10.454Z,1.47
2023-03-26T07:21:40.368Z,1.80
2023-03-26T07:24:30.902Z,1.20
2023-03-26T07:27:51.803Z,1.30
2023-03-26T07:30:36.626Z,1.60
2023-03-26T07:33:32.055Z,1.30
2023-03-26T07:36:18.164Z,1.57
2023-03-26T07:39:30.339Z,1.07
2023-03-26T07:43:16.700Z,1.40
2023-03-26T07:46:02.537Z,1.23
2023-03-26T07:48:51.983Z,1.17
2023-03-26T07:51:42.209Z,1.10
2023-03-26T07:54:25.611Z,1.20
2023-03-26T07:58:00.430Z,1.87
2023-03-26T08:01:28.172Z,1.87
2023-03-26T08:04:24.278Z,1.53
2023-03-26T08:07:39.579Z,1.27
2023-03-26T08:10:35.556Z,1.50
2023-03-26T08:13:35.892Z,1.37
2023-03-26T08:16:09.584Z,1.33
2023-03-26T08:19:08.076Z,1.67
2023-03-26T08:21:45.776Z,1.60
2023-03-26T08:24:39.347Z,1.40
2023-03-26T08:27:27.725Z,1.53
2023-03-26T08:30:02.439Z,1.63
2023-03-26T08:32:29.723Z,1.40
2023-03-26T08:34:57.722Z,1.33
2023-03-26T08:37:24.902Z,1.10
2023-03-26T08:39:52.011Z,1.13
2023-03-26T08:42:50.159Z,1.17
2023-03-26T08:45:54.160Z,1.30
2023-03-26T08:48:42.381Z,1.07
2023-03-26T08:51:31.760Z,0.80
2023-03-26T08:53:59.218Z,1.77
2023-03-26T08:57:07.424Z,1.30
2023-03-26T08:59:56.837Z,1.20
2023-03-26T09:02:50.475Z,1.60
2023-03-26T09:05:34.245Z,1.30
2023-03-26T09:08:04.578Z,1.43
2023-03-26T09:10:34.767Z,1.70
2023-03-26T09:13:29.659Z,1.10
2023-03-26T09:16:15.762Z,1.47
2023-03-26T09:19:18.262Z,1.50
2023-03-26T09:22:03.482Z,1.00
2023-03-26T09:24:30.861Z,1.77
2023-03-26T09:27:25.507Z,1.30
2023-03-26T09:30:33.294Z,1.70
2023-03-26T09:33:11.660Z,1.53
2023-03-26T09:35:58.408Z,1.23
2023-03-26T09:38:49.741Z,1.70
2023-03-26T09:41:36.517Z,1.00
2023-03-26T09:44:07.869Z,1.20
2023-03-26T09:46:46.606Z,1.07
2023-03-26T09:49:18.281Z,1.00
2023-03-26T09:52:07.223Z,1.33
2023-03-26T09:55:08.737Z,0.73
2023-03-26T09:58:04.950Z,0.80
2023-03-26T10:01:05.674Z,0.80
2023-03-26T10:03:49.608Z,0.60
2023-03-26T10:06:30.720Z,0.90
2023-03-26T10:09:22.470Z,1.10
2023-03-26T10:12:15.445Z,0.90
2023-03-26T10:14:59.501Z,0.63
2023-03-26T10:17:36.413Z,0.90
2023-03-26T10:20:32.283Z,0.90
2023-03-26T10:23:31.770Z,0.83
2023-03-26T10:26:01.921Z,1.00
2023-03-26T10:28:39.457Z,0.90
2023-03-26T10:31:44.197Z,1.10
2023-03-26T10:34:45.873Z,0.80
2023-03-26T10:37:37.929Z,1.02
2023-03-26T10:40:21.298Z,0.88
2023-03-26T10:43:12.443Z,0.90
2023-03-26T10:46:07.787Z,0.90
2023-03-26T10:49:12.285Z,0.70
2023-03-26T10:51:55.101Z,1.00
2023-03-26T10:54:42.202Z,0.80
2023-03-26T10:57:19.520Z,0.70
2023-03-26T10:59:46.756Z,0.80
2023-03-26T11:03:00.752Z,1.00
2023-03-26T11:05:48.234Z,0.80
2023-03-26T11:08:41.835Z,1.10
2023-03-26T11:11:21.586Z,1.17
2023-03-26T11:14:05.133Z,0.80
2023-03-26T11:16:49.453Z,1.20
2023-03-26T11:19:35.408Z,0.90
2023-03-26T11:22:30.650Z,0.97
2023-03-26T11:25:22.842Z,1.23
2023-03-26T11:28:17.356Z,1.00
2023-03-26T11:31:02.273Z,1.57
2023-03-26T11:33:37.399Z,1.20
2023-03-26T11:36:19.772Z,1.20
2023-03-26T11:38:49.417Z,1.10
2023-03-26T11:41:25.110Z,1.30
2023-03-26T11:44:19.447Z,1.43
2023-03-26T11:46:49.730Z,1.17
2023-03-26T11:49:22.855Z,1.00
2023-03-26T11:51:50.343Z,1.20
2023-03-26T11:54:21.066Z,1.23
2023-03-26T11:57:05.245Z,1.00
2023-03-26T11:59:57.864Z,0.80
2023-03-26T12:02:39.456Z,1.50
2023-03-26T12:05:15.827Z,1.20
2023-03-26T12:07:56.864Z,1.00
2023-03-26T12:10:35.164Z,0.90
2023-03-26T12:13:27.038Z,1.43
2023-03-26T12:16:18.517Z,1.83
2023-03-26T12:18:57.150Z,1.10
2023-03-26T12:21:24.383Z,1.20
2023-03-26T12:24:08.647Z,1.40
2023-03-26T12:26:46.360Z,1.20
2023-03-26T12:29:16.466Z,1.07
2023-03-26T12:32:05.005Z,1.30
2023-03-26T12:34:38.321Z,1.20
2023-03-26T12:37:07.753Z,1.27
2023-03-26T12:40:07.601Z,1.10
2023-03-26T12:44:47.105Z,0.87
2023-03-26T12:45:37.743Z,1.30
2023-03-26T12:48:05.871Z,1.00
2023-03-26T12:50:51.273Z,0.90
2023-03-26T12:53:33.877Z,0.87
2023-03-26T12:56:20.022Z,0.70
2023-03-26T12:58:55.927Z,0.80
2023-03-26T13:01:50.609Z,0.90
2023-03-26T13:04:58.644Z,0.80
2023-03-26T13:07:47.478Z,0.90
2023-03-26T13:10:57.707Z,1.20
2023-03-26T13:13:44.267Z,1.27
2023-03-26T13:16:28.402Z,1.03
2023-03-26T13:19:20.302Z,1.17
2023-03-26T13:21:53.739Z,1.40
2023-03-26T13:24:52.174Z,2.70
2023-03-26T13:27:40.586Z,1.20
2023-03-26T13:30:28.815Z,1.63
2023-03-26T13:33:42.454Z,1.40
2023-03-26T13:36:23.969Z,1.57
2023-03-26T13:39:21.058Z,1.17
2023-03-26T13:42:14.961Z,1.80
2023-03-26T13:45:04.587Z,2.07
2023-03-26T13:47:42.233Z,1.50
2023-03-26T13:50:21.142Z,1.40
2023-03-26T13:52:57.333Z,1.27
2023-03-26T13:55:46.019Z,1.50
2023-03-26T13:58:34.784Z,1.30
2023-03-26T14:01:02.392Z,1.35
2023-03-26T14:03:52.114Z,1.10
2023-03-26T14:06:46.741Z,1.00
2023-03-26T14:09:19.152Z,1.38
2023-03-26T14:12:07.061Z,1.10
2023-03-26T14:15:04.130Z,1.00
2023-03-26T14:17:50.800Z,1.25
2023-03-26T14:20:17.998Z,1.40
2023-03-26T14:23:11.535Z,1.05
2023-03-26T14:25:57.313Z,1.35
2023-03-26T14:28:42.630Z,1.73
2023-03-26T14:31:29.070Z,1.20
2023-03-26T14:34:34.423Z,1.30
2023-03-26T14:37:28.303Z,1.50
2023-03-26T14:40:16.904Z,1.60
2023-03-26T14:42:58.983Z,1.45
2023-03-26T14:46:03.112Z,1.57
2023-03-26T14:48:42.489Z,1.73
2023-03-26T14:51:19.068Z,1.70
2023-03-26T14:53:51.883Z,1.30
2023-03-26T14:56:43.848Z,1.35
2023-03-26T14:59:39.243Z,1.20
2023-03-26T15:02:25.538Z,1.40
2023-03-26T15:05:29.772Z,1.70
2023-03-26T15:08:09.511Z,1.63
2023-03-26T15:10:54.665Z,1.38
2023-03-26T15:13:37.528Z,1.30
2023-03-26T15:16:12.574Z,1.77
2023-03-26T15:18:51.748Z,1.58
2023-03-26T15:21:43.817Z,1.73
2023-03-26T15:24:48.715Z,1.52
2023-03-26T15:27:18.918Z,1.53
2023-03-26T15:29:52.027Z,1.60
2023-03-26T15:32:40.576Z,1.48
2023-03-26T15:35:27.960Z,1.37
2023-03-26T15:38:17.991Z,1.00
2023-03-26T15:41:17.624Z,0.93
2023-03-26T15:44:24.377Z,1.45
2023-03-26T15:47:10.994Z,1.40
2023-03-26T15:49:50.073Z,1.27
2023-03-26T15:52:38.774Z,1.30
2023-03-26T15:55:27.788Z,1.13
2023-03-26T15:58:02.496Z,1.20
2023-03-26T16:00:42.771Z,1.17
2023-03-26T16:03:23.233Z,1.15
2023-03-26T16:05:57.465Z,1.00
2023-03-26T16:09:08.058Z,0.90
2023-03-26T16:11:55.907Z,1.02
2023-03-26T16:14:35.502Z,1.30
2023-03-26T16:17:08.133Z,1.43
2023-03-26T16:19:41.239Z,1.20
2023-03-26T16:22:15.044Z,1.20
2023-03-26T16:24:48.905Z,1.10
2023-03-26T16:27:30.466Z,1.08
2023-03-26T16:30:00.686Z,1.00
2023-03-26T16:32:36.645Z,1.08
2023-03-26T16:35:21.824Z,1.20
2023-03-26T16:37:50.875Z,1.20
2023-03-26T16:40:18.239Z,1.33
2023-03-26T16:43:18.033Z,1.17
2023-03-26T16:46:00.622Z,1.10
2023-03-26T16:49:03.943Z,1.23
2023-03-26T16:51:53.762Z,1.02
2023-03-26T16:55:13.756Z,1.65
2023-03-26T16:57:56.372Z,1.25
2023-03-26T17:00:29.992Z,2.40
2023-03-26T17:03:35.655Z,1.50
2023-03-26T17:06:14.003Z,1.40
2023-03-26T17:08:59.069Z,1.00
2023-03-26T17:12:11.808Z,1.50
2023-03-26T17:14:51.990Z,1.50
2023-03-26T17:17:23.849Z,1.67
2023-03-26T17:19:57.165Z,1.20
2023-03-26T17:22:37.395Z,1.30
2023-03-26T17:25:37.774Z,1.50
2023-03-26T17:28:32.513Z,1.83
2023-03-26T17:31:03.532Z,2.00
2023-03-26T17:33:39.038Z,1.20
2023-03-26T17:36:12.644Z,1.50
2023-03-26T17:38:39.897Z,1.40
2023-03-26T17:41:16.428Z,1.20
2023-03-26T17:43:57.252Z,1.50
2023-03-26T17:46:39.833Z,1.10
2023-03-26T17:49:13.295Z,1.60
2023-03-26T17:51:59.099Z,1.30
2023-03-26T17:54:31.577Z,1.40
2023-03-26T17:57:06.351Z,1.67
2023-03-26T17:59:38.705Z,1.20
2023-03-26T18:02:13.986Z,1.33
2023-03-26T18:04:45.792Z,1.67
2023-03-26T18:07:28.301Z,1.30
2023-03-26T18:10:22.847Z,1.43
2023-03-26T18:13:20.935Z,1.47
2023-03-26T18:16:01.319Z,1.60
2023-03-26T18:18:37.342Z,1.00
2023-03-26T18:21:07.390Z,1.20
2023-03-26T18:23:39.062Z,1.53
2023-03-26T18:26:32.674Z,1.40
2023-03-26T18:29:22.421Z,1.20
2023-03-26T18:31:54.814Z,1.60
2023-03-26T18:34:24.498Z,2.37
2023-03-26T18:37:19.630Z,1.03
2023-03-26T18:40:02.212Z,1.80
2023-03-26T18:42:32.739Z,1.50
2023-03-26T18:45:05.249Z,1.50
2023-03-26T18:47:32.821Z,1.43
2023-03-26T18:50:00.416Z,1.50
2023-03-26T18:52:29.657Z,1.93
2023-03-26T18:54:59.194Z,2.67
2023-03-26T18:57:29.327Z,1.37
2023-03-26T19:00:25.701Z,1.53
2023-03-26T19:03:08.206Z,1.30
2023-03-26T19:05:36.671Z,2.07
2023-03-26T19:08:05.704Z,2.50
2023-03-26T19:10:33.803Z,1.97
2023-03-26T19:13:02.338Z,1.90
2023-03-26T19:15:32.551Z,1.60
2023-03-26T19:18:12.286Z,1.40
2023-03-26T19:20:57.549Z,1.40
2023-03-26T19:23:51.447Z,1.57
2023-03-26T19:26:19.097Z,2.00
2023-03-26T19:28:54.439Z,1.47
2023-03-26T19:31:26.199Z,1.97
2023-03-26T19:34:00.744Z,2.10
2023-03-26T19:36:34.728Z,1.53
2023-03-26T19:39:05.302Z,1.73
2023-03-26T19:41:35.433Z,1.20
2023-03-26T19:44:15.726Z,1.80
2023-03-26T19:46:54.068Z,2.43
2023-03-26T19:50:07.502Z,2.17
2023-03-26T19:52:38.454Z,1.43
2023-03-26T19:55:10.299Z,1.70
2023-03-26T19:57:38.185Z,1.20
2023-03-26T20:00:13.910Z,2.07
2023-03-26T20:02:46.619Z,2.17
2023-03-26T20:05:25.569Z,1.50
2023-03-26T20:07:55.827Z,2.30
2023-03-26T20:10:23.713Z,3.93
2023-03-26T20:12:50.931Z,2.27
2023-03-26T20:15:25.462Z,1.80
2023-03-26T20:17:57.153Z,3.70
2023-03-26T20:20:27.267Z,3.50
2023-03-26T20:22:54.941Z,5.20
2023-03-26T20:25:32.139Z,5.63
2023-03-26T20:27:59.821Z,6.30
2023-03-26T20:30:37.296Z,5.53
2023-03-26T20:33:11.934Z,4.90
2023-03-26T20:35:41.697Z,7.67
2023-03-26T20:38:09.990Z,3.23
2023-03-26T20:40:38.693Z,2.20
2023-03-26T20:43:11.807Z,2.30
2023-03-26T20:45:39.052Z,3.50
2023-03-26T20:48:07.186Z,2.40
2023-03-26T20:50:35.948Z,2.40
2023-03-26T20:53:06.508Z,1.47
2023-03-26T20:55:35.727Z,1.30
2023-03-26T20:58:04.194Z,1.40
2023-03-26T21:00:32.486Z,1.50
2023-03-26T21:02:59.715Z,1.50
2023-03-26T21:05:29.247Z,1.00
2023-03-26T21:08:01.781Z,1.07
2023-03-26T21:10:34.363Z,1.40
2023-03-26T21:13:31.100Z,1.73
2023-03-26T21:16:00.475Z,0.97
2023-03-26T21:18:28.924Z,1.37
2023-03-26T21:21:32.822Z,1.27
2023-03-26T21:24:09.606Z,1.00
2023-03-26T21:26:44.498Z,1.30
2023-03-26T21:29:12.163Z,1.13
2023-03-26T21:31:39.540Z,1.40
2023-03-26T21:34:08.408Z,1.00
2023-03-26T21:36:36.928Z,1.00
2023-03-26T21:39:06.639Z,0.80
2023-03-26T21:42:04.692Z,0.90
2023-03-26T21:44:34.274Z,0.93
2023-03-26T21:47:01.762Z,1.00
2023-03-26T21:49:29.699Z,0.83
2023-03-26T21:51:57.169Z,1.10
2023-03-26T21:54:29.569Z,1.00
2023-03-26T21:57:18.667Z,0.90
2023-03-26T21:59:58.770Z,1.17
2023-03-26T22:02:57.735Z,0.80
2023-03-26T22:05:52.451Z,0.80
2023-03-26T22:08:31.297Z,0.90
2023-03-26T22:10:58.638Z,0.93
2023-03-26T22:13:26.087Z,1.00
2023-03-26T22:15:53.708Z,1.43
2023-03-26T22:18:21.820Z,0.97
2023-03-26T22:20:49.434Z,1.00
2023-03-26T22:23:18.239Z,0.93
2023-03-26T22:25:46.159Z,0.90
2023-03-26T22:28:13.969Z,0.90
2023-03-26T22:30:41.639Z,1.30
2023-03-26T22:33:11.115Z,1.03
2023-03-26T22:35:41.298Z,1.10
2023-03-26T22:38:09.872Z,0.90
2023-03-26T22:40:37.410Z,1.00
2023-03-26T22:43:04.871Z,1.00
2023-03-26T22:45:32.671Z,1.00
2023-03-26T22:48:03.185Z,1.03
2023-03-26T22:50:32.497Z,1.03
2023-03-26T22:52:59.953Z,0.80
2023-03-26T22:55:28.945Z,0.70
2023-03-26T22:57:57.604Z,0.77
2023-03-26T23:00:26.605Z,0.70
2023-03-26T23:03:00.368Z,0.70
2023-03-26T23:05:28.639Z,0.90
2023-03-26T23:07:56.083Z,1.10
2023-03-26T23:10:24.126Z,0.90
2023-03-26T23:12:52.897Z,1.07
2023-03-26T23:15:20.762Z,1.30
2023-03-26T23:17:54.431Z,0.90
2023-03-26T23:20:22.286Z,1.03
2023-03-26T23:22:49.583Z,1.03
2023-03-26T23:25:16.927Z,1.00
2023-03-26T23:27:44.731Z,1.17
2023-03-26T23:30:13.488Z,1.10
2023-03-26T23:32:41.597Z,1.10
2023-03-26T23:35:09.302Z,0.90
2023-03-26T23:37:36.727Z,0.70
2023-03-26T23:40:10.446Z,1.00
2023-03-26T23:42:38.187Z,1.10
2023-03-26T23:45:06.830Z,0.87
2023-03-26T23:47:37.442Z,1.10
2023-03-26T23:50:05.360Z,1.20
2023-03-26T23:52:32.619Z,1.10
2023-03-26T23:55:00.145Z,1.17
2023-03-26T23:57:27.492Z,1.20
2023-03-26T23:59:55.727Z,1.20
